createdAt,value
2023-03-08T00:02:58.047Z,98248.72
2023-03-08T00:07:59.641Z,98254.03
2023-03-08T00:13:01.282Z,98273.28
2023-03-08T00:18:03.269Z,98279.19
2023-03-08T00:23:04.893Z,98287.06
2023-03-08T00:28:06.527Z,98272.59
2023-03-08T00:33:08.209Z,98288.03
2023-03-08T00:38:09.837Z,98297.34
2023-03-08T00:43:13.088Z,98298.34
2023-03-08T00:48:14.904Z,98298.50
2023-03-08T00:53:16.561Z,98311.41
2023-03-08T00:58:18.386Z,98320.91
2023-03-08T01:03:21.765Z,98305.38
2023-03-08T01:08:25.652Z,98296.03
2023-03-08T01:13:33.070Z,98313.25
2023-03-08T01:18:34.622Z,98308.09
2023-03-08T01:23:36.302Z,98308.94
2023-03-08T01:28:38.511Z,98307.19
2023-03-08T01:33:42.241Z,98303.00
2023-03-08T01:38:44.885Z,98302.94
2023-03-08T01:43:47.312Z,98308.38
2023-03-08T01:49:06.479Z,98307.31
2023-03-08T01:54:14.205Z,98305.66
2023-03-08T01:59:16.192Z,98296.25
2023-03-08T02:04:17.921Z,98296.47
2023-03-08T02:09:21.646Z,98291.28
2023-03-08T02:14:25.086Z,98304.16
2023-03-08T02:19:39.144Z,98295.88
2023-03-08T02:24:41.022Z,98301.09
2023-03-08T02:29:42.712Z,98304.50
2023-03-08T02:34:44.404Z,98305.81
2023-03-08T02:39:47.420Z,98305.69
2023-03-08T02:44:49.365Z,98305.66
2023-03-08T02:49:51.544Z,98304.69
2023-03-08T02:54:53.937Z,98311.84
2023-03-08T02:59:57.641Z,98309.53
2023-03-08T03:05:08.079Z,98304.28
2023-03-08T03:10:12.197Z,98306.03
2023-03-08T03:15:13.902Z,98321.16
2023-03-08T03:20:16.898Z,98320.34
2023-03-08T03:25:18.901Z,98319.81
2023-03-08T03:30:22.801Z,98318.81
2023-03-08T03:35:25.021Z,98321.25
2023-03-08T03:40:26.869Z,98322.75
2023-03-08T03:45:34.073Z,98324.09
2023-03-08T03:50:35.808Z,98322.84
2023-03-08T03:55:43.524Z,98330.81
2023-03-08T04:00:45.848Z,98331.84
2023-03-08T04:06:15.972Z,98340.41
2023-03-08T04:11:21.407Z,98336.97
2023-03-08T04:16:28.777Z,98338.56
2023-03-08T04:21:33.757Z,98344.69
2023-03-08T04:26:36.485Z,98346.31
2023-03-08T04:31:38.373Z,98345.47
2023-03-08T04:36:44.108Z,98339.44
2023-03-08T04:41:45.833Z,98335.13
2023-03-08T04:46:56.276Z,98329.97
2023-03-08T04:52:05.301Z,98333.44
2023-03-08T04:57:09.528Z,98337.72
2023-03-08T05:02:12.906Z,98335.78
2023-03-08T05:07:14.993Z,98342.31
2023-03-08T05:12:17.448Z,98348.13
2023-03-08T05:17:29.355Z,98340.16
2023-03-08T05:22:35.686Z,98344.16
2023-03-08T05:27:42.560Z,98345.03
2023-03-08T05:32:44.461Z,98338.00
2023-03-08T05:37:46.359Z,98347.53
2023-03-08T05:42:48.179Z,98352.78
2023-03-08T05:47:50.707Z,98368.59
2023-03-08T05:52:52.540Z,98356.16
2023-03-08T05:57:58.620Z,98358.25
2023-03-08T06:03:04.419Z,98360.22
2023-03-08T06:08:09.594Z,98372.34
2023-03-08T06:13:11.471Z,98358.91
2023-03-08T06:18:13.308Z,98356.44
2023-03-08T06:23:15.821Z,98366.91
2023-03-08T06:28:18.909Z,98379.50
2023-03-08T06:33:23.372Z,98369.84
2023-03-08T06:38:27.519Z,98367.31
2023-03-08T06:43:31.125Z,98352.91
2023-03-08T06:48:34.619Z,98335.78
2023-03-08T06:53:38.119Z,98340.16
2023-03-08T06:58:41.585Z,98349.81
2023-03-08T07:03:45.377Z,98354.09
2023-03-08T07:08:47.055Z,98361.97
2023-03-08T07:13:48.919Z,98365.94
2023-03-08T07:18:50.742Z,98369.25
2023-03-08T07:23:53.140Z,98368.69
2023-03-08T07:28:55.922Z,98369.75
2023-03-08T07:33:57.705Z,98369.16
2023-03-08T07:38:59.548Z,98365.09
2023-03-08T07:44:02.463Z,98367.34
2023-03-08T07:49:04.290Z,98362.91
2023-03-08T07:54:06.011Z,98356.44
2023-03-08T07:59:07.810Z,98365.81
2023-03-08T08:04:09.858Z,98364.91
2023-03-08T08:09:14.836Z,98365.16
2023-03-08T08:14:16.652Z,98350.13
2023-03-08T08:19:18.419Z,98348.31
2023-03-08T08:24:20.260Z,98341.63
2023-03-08T08:29:22.517Z,98328.72
2023-03-08T08:34:25.042Z,98343.59
2023-03-08T08:39:26.813Z,98339.06
2023-03-08T08:44:28.768Z,98333.03
2023-03-08T08:49:30.689Z,98321.47
2023-03-08T08:54:33.818Z,98319.69
2023-03-08T08:59:35.495Z,98309.16
2023-03-08T09:04:37.389Z,98304.78
2023-03-08T09:09:39.289Z,98304.28
2023-03-08T09:14:41.098Z,98283.09
2023-03-08T09:19:42.838Z,98279.22
2023-03-08T09:24:47.898Z,98276.22
2023-03-08T09:29:49.641Z,98270.63
2023-03-08T09:34:52.076Z,98257.88
2023-03-08T09:39:54.201Z,98239.81
2023-03-08T09:45:07.274Z,98236.03
2023-03-08T09:50:15.866Z,98222.25
2023-03-08T09:55:38.489Z,98215.97
2023-03-08T10:00:41.410Z,98209.53
2023-03-08T10:05:47.460Z,98201.97
2023-03-08T10:10:55.158Z,98194.09
2023-03-08T10:16:23.728Z,98198.56
2023-03-08T10:21:27.493Z,98188.47
2023-03-08T10:26:31.524Z,98192.75
2023-03-08T10:31:33.810Z,98185.78
2023-03-08T10:36:46.396Z,98181.50
2023-03-08T10:42:00.129Z,98175.03
2023-03-08T10:47:04.605Z,98167.56
2023-03-08T10:52:25.280Z,98158.38
2023-03-08T10:57:27.841Z,98151.53
2023-03-08T11:02:29.687Z,98133.94
2023-03-08T11:07:33.280Z,98122.88
2023-03-08T11:12:34.981Z,98110.66
2023-03-08T11:17:39.499Z,98103.56
2023-03-08T11:22:45.626Z,98082.28
2023-03-08T11:28:02.588Z,98071.97
2023-03-08T11:33:04.470Z,98057.09
2023-03-08T11:38:16.738Z,98055.94
2023-03-08T11:43:31.027Z,98035.41
2023-03-08T11:48:51.721Z,98019.13
2023-03-08T11:54:02.496Z,98007.53
2023-03-08T11:59:19.777Z,97992.97
2023-03-08T12:04:36.887Z,97990.88
2023-03-08T12:10:09.120Z,97979.25
2023-03-08T12:15:27.504Z,97969.63
2023-03-08T12:20:34.278Z,97966.69
2023-03-08T12:25:40.415Z,97963.56
2023-03-08T12:31:09.250Z,97949.94
2023-03-08T12:36:14.716Z,97953.22
2023-03-08T12:41:28.508Z,97953.38
2023-03-08T12:47:07.482Z,97947.41
2023-03-08T12:52:18.171Z,97948.72
2023-03-08T12:57:23.930Z,97946.28
2023-03-08T13:02:34.726Z,97945.78
2023-03-08T13:07:52.785Z,97950.66
2023-03-08T13:13:01.964Z,97948.88
2023-03-08T13:18:08.552Z,97948.63
2023-03-08T13:23:13.202Z,97941.56
2023-03-08T13:28:20.337Z,97932.25
2023-03-08T13:33:27.181Z,97929.47
2023-03-08T13:38:38.087Z,97935.97
2023-03-08T13:43:39.686Z,97919.44
2023-03-08T13:48:44.292Z,97916.03
2023-03-08T13:53:46.706Z,97894.03
2023-03-08T13:58:50.633Z,97881.84
2023-03-08T14:03:58.324Z,97874.63
2023-03-08T14:09:02.534Z,97880.28
2023-03-08T14:14:09.506Z,97867.88
2023-03-08T14:19:28.029Z,97866.50
2023-03-08T14:24:33.049Z,97857.81
2023-03-08T14:29:36.414Z,97851.78
2023-03-08T14:34:42.415Z,97845.25
2023-03-08T14:39:46.675Z,97853.53
2023-03-08T14:44:53.766Z,97850.13
2023-03-08T14:50:17.514Z,97833.84
2023-03-08T14:55:34.271Z,97821.88
2023-03-08T15:00:36.065Z,97828.16
2023-03-08T15:05:39.784Z,97810.50
2023-03-08T15:10:42.049Z,97782.59
2023-03-08T15:15:43.943Z,97771.59
2023-03-08T15:20:49.479Z,97787.00
2023-03-08T15:25:52.240Z,97791.19
2023-03-08T15:30:57.313Z,97791.06
2023-03-08T15:35:59.152Z,97775.00
2023-03-08T15:41:00.883Z,97773.53
2023-03-08T15:46:02.562Z,97755.28
2023-03-08T15:51:04.610Z,97741.63
2023-03-08T15:56:06.398Z,97744.13
2023-03-08T16:01:08.351Z,97750.25
2023-03-08T16:06:12.059Z,97732.97
2023-03-08T16:11:16.779Z,97731.88
2023-03-08T16:16:20.237Z,97734.59
2023-03-08T16:21:21.956Z,97731.94
2023-03-08T16:26:24.322Z,97729.28
2023-03-08T16:31:26.117Z,97727.16
2023-03-08T16:36:27.810Z,97725.53
2023-03-08T16:41:30.104Z,97724.22
2023-03-08T16:46:32.933Z,97725.31
2023-03-08T16:51:37.340Z,97718.41
2023-03-08T16:56:42.379Z,97721.72
2023-03-08T17:01:44.483Z,97720.97
2023-03-08T17:06:46.646Z,97714.44
2023-03-08T17:11:48.434Z,97706.06
2023-03-08T17:16:50.105Z,97703.53
2023-03-08T17:21:52.116Z,97712.03
2023-03-08T17:26:54.241Z,97712.69
2023-03-08T17:31:55.892Z,97699.63
2023-03-08T17:36:57.874Z,97688.69
2023-03-08T17:41:59.679Z,97687.59
2023-03-08T17:47:01.519Z,97690.25
2023-03-08T17:52:03.323Z,97676.19
2023-03-08T17:57:05.193Z,97672.19
2023-03-08T18:02:07.065Z,97684.50
2023-03-08T18:07:08.718Z,97683.19
2023-03-08T18:12:11.524Z,97708.97
2023-03-08T18:17:13.233Z,97705.44
2023-03-08T18:22:15.840Z,97705.13
2023-03-08T18:27:17.657Z,97706.56
2023-03-08T18:32:19.637Z,97688.66
2023-03-08T18:37:21.552Z,97676.00
2023-03-08T18:42:23.305Z,97680.88
2023-03-08T18:47:25.102Z,97689.00
2023-03-08T18:52:26.766Z,97687.78
2023-03-08T18:57:28.481Z,97692.75
2023-03-08T19:02:30.467Z,97690.72
2023-03-08T19:07:32.422Z,97685.84
2023-03-08T19:12:37.280Z,97677.25
2023-03-08T19:17:39.049Z,97663.03
2023-03-08T19:22:41.126Z,97670.22
2023-03-08T19:27:43.194Z,97679.69
2023-03-08T19:32:44.936Z,97686.53
2023-03-08T19:37:46.801Z,97689.72
2023-03-08T19:42:51.554Z,97682.47
2023-03-08T19:47:53.176Z,97678.94
2023-03-08T19:52:55.100Z,97675.97
2023-03-08T19:57:56.799Z,97678.84
2023-03-08T20:02:59.473Z,97667.19
2023-03-08T20:08:01.220Z,97675.31
2023-03-08T20:13:03.415Z,97675.50
2023-03-08T20:18:05.124Z,97678.50
2023-03-08T20:23:07.066Z,97674.84
2023-03-08T20:28:10.109Z,97677.50
2023-03-08T20:33:11.842Z,97679.06
2023-03-08T20:38:13.737Z,97682.59
2023-03-08T20:43:15.500Z,97692.78
2023-03-08T20:48:17.287Z,97693.66
2023-03-08T20:53:18.957Z,97684.19
2023-03-08T20:58:21.201Z,97692.47
2023-03-08T21:03:23.102Z,97684.59
2023-03-08T21:08:24.926Z,97688.72
2023-03-08T21:13:26.521Z,97680.16
2023-03-08T21:18:28.229Z,97680.75
2023-03-08T21:23:29.962Z,97679.44
2023-03-08T21:28:31.574Z,97666.28
2023-03-08T21:33:33.177Z,97665.03
2023-03-08T21:38:34.876Z,97659.28
2023-03-08T21:43:36.519Z,97653.41
2023-03-08T21:48:38.216Z,97656.13
2023-03-08T21:53:40.415Z,97649.88
2023-03-08T21:58:42.966Z,97644.34
2023-03-08T22:03:44.563Z,97635.34
2023-03-08T22:08:46.836Z,97636.34
2023-03-08T22:13:50.807Z,97636.72
2023-03-08T22:18:54.756Z,97628.34
2023-03-08T22:23:58.391Z,97628.59
2023-03-08T22:29:00.185Z,97626.19
2023-03-08T22:34:01.904Z,97621.22
2023-03-08T22:39:03.613Z,97611.63
2023-03-08T22:44:07.586Z,97617.28
2023-03-08T22:49:14.039Z,97616.88
2023-03-08T22:54:21.756Z,97613.69
2023-03-08T22:59:25.586Z,97608.97
2023-03-08T23:04:27.340Z,97623.94
2023-03-08T23:09:29.184Z,97616.94
2023-03-08T23:14:30.906Z,97607.69
2023-03-08T23:19:32.531Z,97614.41
2023-03-08T23:24:34.386Z,97593.69
2023-03-08T23:29:36.271Z,97601.19
2023-03-08T23:34:38.026Z,97603.03
2023-03-08T23:39:39.641Z,97606.50
2023-03-08T23:44:41.310Z,97595.41
2023-03-08T23:49:42.939Z,97587.44
2023-03-08T23:54:44.557Z,97572.78
2023-03-08T23:59:46.263Z,97572.19
